createdAt,value
2022-11-21T00:01:19.616Z,3.10
2022-11-21T00:03:47.212Z,1.73
2022-11-21T00:06:14.852Z,3.78
2022-11-21T00:08:42.544Z,1.85
2022-11-21T00:11:10.063Z,3.10
2022-11-21T00:13:37.750Z,3.47
2022-11-21T00:16:06.908Z,1.58
2022-11-21T00:18:35.264Z,3.70
2022-11-21T00:21:13.811Z,2.40
2022-11-21T00:23:42.599Z,1.70
2022-11-21T00:26:11.066Z,2.28
2022-11-21T00:28:38.734Z,1.55
2022-11-21T00:31:06.840Z,8.10
2022-11-21T00:33:39.087Z,1.88
2022-11-21T00:36:08.220Z,3.92
2022-11-21T00:38:35.870Z,3.38
2022-11-21T00:41:03.425Z,2.40
2022-11-21T00:43:31.089Z,2.33
2022-11-21T00:46:01.353Z,2.22
2022-11-21T00:50:58.110Z,1.52
2022-11-21T00:53:25.674Z,1.55
2022-11-21T00:55:53.408Z,1.77
2022-11-21T00:58:23.945Z,2.35
2022-11-21T01:00:51.577Z,2.35
2022-11-21T01:03:19.267Z,2.55
2022-11-21T01:05:46.918Z,1.23
2022-11-21T01:08:14.447Z,3.15
2022-11-21T01:10:41.873Z,2.63
2022-11-21T01:13:09.426Z,4.22
2022-11-21T01:15:36.591Z,2.40
2022-11-21T01:18:04.581Z,3.33
2022-11-21T01:20:32.335Z,2.20
2022-11-21T01:23:00.860Z,2.65
2022-11-21T01:25:28.376Z,3.00
2022-11-21T01:27:55.802Z,4.35
2022-11-21T01:30:23.401Z,3.10
2022-11-21T01:32:51.134Z,1.95
2022-11-21T01:35:19.508Z,3.13
2022-11-21T01:37:50.003Z,2.20
2022-11-21T01:40:18.791Z,2.03
2022-11-21T01:42:59.352Z,2.58
2022-11-21T01:46:04.150Z,3.85
2022-11-21T01:49:00.824Z,5.28
2022-11-21T01:51:46.146Z,2.13
2022-11-21T01:54:29.729Z,1.67
2022-11-21T01:57:17.991Z,1.90
2022-11-21T02:00:08.943Z,2.05
2022-11-21T02:02:43.643Z,0.77
2022-11-21T02:05:20.776Z,2.67
2022-11-21T02:07:49.840Z,4.43
2022-11-21T02:10:17.540Z,2.03
2022-11-21T02:12:52.004Z,2.08
2022-11-21T02:15:25.625Z,1.90
2022-11-21T02:17:53.124Z,2.80
2022-11-21T02:20:21.803Z,2.55
2022-11-21T02:23:01.099Z,1.95
2022-11-21T02:25:36.147Z,1.13
2022-11-21T02:28:07.013Z,1.65
2022-11-21T02:30:37.712Z,2.75
2022-11-21T02:33:06.050Z,1.55
2022-11-21T02:35:36.524Z,2.58
2022-11-21T02:38:28.127Z,2.58
2022-11-21T02:41:26.764Z,2.63
2022-11-21T02:44:02.736Z,3.13
2022-11-21T02:46:30.344Z,1.60
2022-11-21T02:48:58.804Z,2.80
2022-11-21T02:51:26.524Z,1.63
2022-11-21T02:53:54.125Z,2.38
2022-11-21T02:56:22.037Z,2.60
2022-11-21T02:58:50.071Z,2.25
2022-11-21T03:01:17.850Z,1.98
2022-11-21T03:03:45.471Z,1.80
2022-11-21T03:06:13.007Z,4.05
2022-11-21T03:08:40.737Z,4.03
2022-11-21T03:11:08.737Z,4.93
2022-11-21T03:13:36.262Z,1.83
2022-11-21T03:16:03.757Z,2.78
2022-11-21T03:18:32.415Z,2.55
2022-11-21T03:21:00.010Z,3.70
2022-11-21T03:23:27.736Z,1.77
2022-11-21T03:25:55.862Z,1.27
2022-11-21T03:28:23.322Z,3.00
2022-11-21T03:30:51.051Z,2.97
2022-11-21T03:33:18.984Z,3.10
2022-11-21T03:35:47.805Z,3.30
2022-11-21T03:38:15.366Z,1.48
2022-11-21T03:40:42.996Z,1.75
2022-11-21T03:43:10.757Z,1.35
2022-11-21T03:45:38.391Z,2.40
2022-11-21T03:48:06.122Z,1.85
2022-11-21T03:50:33.797Z,1.77
2022-11-21T03:53:01.340Z,1.75
2022-11-21T03:55:29.020Z,1.77
2022-11-21T03:57:56.648Z,2.53
2022-11-21T04:00:24.628Z,4.55
2022-11-21T04:02:53.227Z,4.05
2022-11-21T04:05:20.891Z,2.42
2022-11-21T04:07:48.726Z,2.38
2022-11-21T04:10:16.870Z,6.50
2022-11-21T04:12:44.650Z,2.63
2022-11-21T04:15:13.822Z,7.57
2022-11-21T04:17:41.967Z,2.85
2022-11-21T04:20:10.103Z,3.25
2022-11-21T04:22:37.396Z,1.40
2022-11-21T04:25:05.503Z,7.70
2022-11-21T04:27:33.018Z,6.85
2022-11-21T04:30:00.787Z,4.43
2022-11-21T04:32:28.399Z,5.80
2022-11-21T04:34:58.161Z,11.57
2022-11-21T04:37:25.809Z,10.50
2022-11-21T04:39:53.560Z,2.92
2022-11-21T04:42:21.274Z,12.05
2022-11-21T04:44:49.089Z,5.72
2022-11-21T04:47:16.655Z,3.15
2022-11-21T04:49:44.158Z,18.02
2022-11-21T04:52:12.384Z,6.97
2022-11-21T04:54:40.108Z,5.72
2022-11-21T04:57:08.351Z,4.45
2022-11-21T04:59:36.087Z,13.00
2022-11-21T05:02:05.022Z,8.02
2022-11-21T05:04:32.367Z,10.20
2022-11-21T05:07:00.126Z,9.73
2022-11-21T05:09:27.851Z,12.50
2022-11-21T05:12:13.816Z,12.32
2022-11-21T05:14:41.529Z,2.97
2022-11-21T05:17:10.147Z,9.27
2022-11-21T05:19:37.881Z,12.20
2022-11-21T05:22:06.381Z,6.13
2022-11-21T05:24:34.246Z,5.93
2022-11-21T05:27:01.669Z,10.35
2022-11-21T05:29:29.017Z,16.58
2022-11-21T05:31:56.673Z,7.07
2022-11-21T05:34:24.157Z,12.40
2022-11-21T05:36:58.250Z,8.30
2022-11-21T05:39:26.276Z,18.77
2022-11-21T05:41:57.212Z,11.55
2022-11-21T05:44:28.934Z,11.25
2022-11-21T05:46:56.626Z,12.55
2022-11-21T05:49:24.227Z,13.05
2022-11-21T05:51:52.070Z,8.77
2022-11-21T05:54:19.716Z,23.30
2022-11-21T05:56:47.598Z,21.30
2022-11-21T05:59:15.689Z,11.75
2022-11-21T06:02:02.004Z,20.90
2022-11-21T06:04:30.238Z,28.50
2022-11-21T06:06:58.099Z,17.08
2022-11-21T06:09:25.783Z,27.88
2022-11-21T06:11:53.319Z,16.60
2022-11-21T06:14:20.924Z,27.85
2022-11-21T06:16:48.432Z,12.23
2022-11-21T06:19:15.973Z,25.52
2022-11-21T06:21:43.760Z,18.17
2022-11-21T06:24:12.385Z,34.28
2022-11-21T06:26:40.024Z,32.88
2022-11-21T06:29:10.554Z,18.20
2022-11-21T06:31:39.279Z,25.90
2022-11-21T06:34:06.989Z,20.52
2022-11-21T06:36:34.834Z,30.67
2022-11-21T06:39:02.464Z,24.92
2022-11-21T06:41:32.660Z,33.67
2022-11-21T06:46:29.664Z,43.03
2022-11-21T06:48:57.260Z,70.57
2022-11-21T06:51:26.092Z,26.00
2022-11-21T06:53:57.800Z,20.20
2022-11-21T06:56:26.723Z,24.90
2022-11-21T06:58:54.551Z,21.10
2022-11-21T07:01:22.529Z,39.90
2022-11-21T07:03:50.488Z,29.35
2022-11-21T07:06:18.198Z,34.40
2022-11-21T07:08:45.882Z,25.50
2022-11-21T07:11:25.533Z,50.55
2022-11-21T07:13:53.702Z,28.08
2022-11-21T07:16:21.514Z,26.48
2022-11-21T07:18:49.299Z,18.10
2022-11-21T07:21:17.190Z,62.88
2022-11-21T07:23:44.676Z,30.80
2022-11-21T07:26:12.743Z,71.75
2022-11-21T07:28:40.244Z,24.05
2022-11-21T07:31:13.572Z,78.93
2022-11-21T07:33:43.539Z,36.20
2022-11-21T07:36:12.213Z,29.00
2022-11-21T07:38:41.485Z,28.55
2022-11-21T07:41:09.713Z,71.25
2022-11-21T07:43:37.311Z,36.63
2022-11-21T07:46:04.995Z,37.85
2022-11-21T07:48:32.759Z,33.95
2022-11-21T07:51:00.609Z,51.35
2022-11-21T07:53:28.229Z,18.98
2022-11-21T07:55:58.444Z,24.65
2022-11-21T08:00:53.916Z,46.60
2022-11-21T08:03:25.385Z,35.05
2022-11-21T08:05:52.593Z,37.40
2022-11-21T08:08:20.187Z,39.33
2022-11-21T08:10:47.925Z,56.20
2022-11-21T08:13:15.995Z,40.08
2022-11-21T08:15:43.915Z,48.55
2022-11-21T08:18:12.396Z,53.13
2022-11-21T08:20:40.231Z,40.20
2022-11-21T08:23:08.802Z,40.97
2022-11-21T08:25:38.531Z,38.55
2022-11-21T08:28:06.763Z,21.95
2022-11-21T08:30:34.960Z,32.40
2022-11-21T08:33:03.017Z,49.42
2022-11-21T08:35:30.771Z,32.17
2022-11-21T08:37:59.130Z,38.63
2022-11-21T08:40:27.429Z,24.80
2022-11-21T08:43:07.961Z,46.92
2022-11-21T08:45:39.850Z,33.28
2022-11-21T08:48:11.667Z,39.83
2022-11-21T08:50:45.736Z,32.17
2022-11-21T08:53:14.490Z,24.83
2022-11-21T08:55:42.181Z,32.03
2022-11-21T08:58:09.883Z,27.73
2022-11-21T09:00:37.793Z,29.60
2022-11-21T09:03:05.968Z,33.40
2022-11-21T09:05:34.209Z,31.20
2022-11-21T09:08:02.118Z,42.88
2022-11-21T09:10:29.712Z,30.75
2022-11-21T09:13:00.697Z,22.67
2022-11-21T09:15:47.925Z,34.90
2022-11-21T09:18:15.629Z,39.78
2022-11-21T09:20:44.650Z,29.95
2022-11-21T09:23:14.697Z,39.13
2022-11-21T09:25:43.354Z,22.75
2022-11-21T09:28:12.050Z,52.78
2022-11-21T09:30:40.080Z,31.90
2022-11-21T09:33:11.069Z,40.90
2022-11-21T09:35:39.037Z,31.13
2022-11-21T09:38:08.759Z,21.27
2022-11-21T09:40:36.926Z,29.25
2022-11-21T09:43:23.364Z,24.20
2022-11-21T09:45:52.942Z,35.05
2022-11-21T09:48:32.655Z,29.80
2022-11-21T09:51:09.989Z,29.20
2022-11-21T09:53:39.104Z,32.13
2022-11-21T09:56:15.144Z,28.67
2022-11-21T09:58:49.966Z,33.85
2022-11-21T10:01:18.327Z,47.15
2022-11-21T10:03:53.116Z,41.03
2022-11-21T10:06:22.040Z,30.50
2022-11-21T10:09:04.464Z,31.83
2022-11-21T10:12:03.396Z,39.67
2022-11-21T10:15:16.631Z,49.67
2022-11-21T10:18:21.081Z,27.98
2022-11-21T10:20:56.182Z,32.80
2022-11-21T10:23:29.694Z,32.85
2022-11-21T10:25:58.284Z,24.33
2022-11-21T10:28:32.549Z,27.77
2022-11-21T10:31:01.997Z,35.47
2022-11-21T10:33:33.826Z,44.92
2022-11-21T10:36:09.792Z,16.92
2022-11-21T10:38:42.204Z,31.58
2022-11-21T10:41:28.055Z,21.00
2022-11-21T10:44:22.513Z,19.52
2022-11-21T10:47:00.717Z,20.75
2022-11-21T10:49:32.570Z,18.05
2022-11-21T10:52:11.100Z,42.05
2022-11-21T10:55:03.600Z,26.13
2022-11-21T10:57:51.415Z,37.70
2022-11-21T11:00:33.898Z,25.45
2022-11-21T11:03:05.551Z,29.65
2022-11-21T11:05:41.574Z,30.13
2022-11-21T11:08:13.228Z,24.48
2022-11-21T11:10:43.804Z,21.92
2022-11-21T11:13:50.905Z,17.00
2022-11-21T11:18:49.692Z,27.52
2022-11-21T11:21:20.597Z,44.13
2022-11-21T11:23:51.105Z,40.05
2022-11-21T11:26:26.562Z,31.52
2022-11-21T11:28:56.067Z,33.72
2022-11-21T11:31:24.254Z,40.75
2022-11-21T11:33:53.898Z,20.63
2022-11-21T11:36:45.332Z,38.22
2022-11-21T11:39:22.434Z,24.42
2022-11-21T11:42:27.202Z,22.13
2022-11-21T11:45:31.129Z,31.10
2022-11-21T11:48:05.613Z,24.77
2022-11-21T11:50:33.281Z,27.23
2022-11-21T11:53:33.899Z,20.17
2022-11-21T11:56:23.982Z,27.08
2022-11-21T11:58:51.406Z,31.30
2022-11-21T12:01:30.593Z,18.88
2022-11-21T12:04:04.382Z,24.85
2022-11-21T12:07:41.152Z,17.55
2022-11-21T12:09:43.408Z,28.70
2022-11-21T12:12:17.856Z,28.70
2022-11-21T12:15:22.462Z,35.35
2022-11-21T12:18:20.635Z,31.00
2022-11-21T12:21:06.243Z,26.42
2022-11-21T12:23:55.327Z,44.97
2022-11-21T12:26:43.960Z,32.70
2022-11-21T12:29:35.542Z,25.60
2022-11-21T12:32:21.587Z,23.95
2022-11-21T12:34:59.215Z,34.38
2022-11-21T12:37:52.890Z,20.92
2022-11-21T12:40:52.715Z,32.63
2022-11-21T12:43:38.251Z,19.17
2022-11-21T12:46:19.708Z,39.65
2022-11-21T12:49:33.471Z,22.73
2022-11-21T12:52:52.248Z,18.85
2022-11-21T12:55:40.301Z,21.63
2022-11-21T12:58:33.381Z,32.00
2022-11-21T13:01:23.610Z,30.75
2022-11-21T13:04:06.294Z,16.02
2022-11-21T13:06:37.348Z,26.08
2022-11-21T13:09:06.870Z,28.98
2022-11-21T13:12:00.324Z,26.50
2022-11-21T13:14:35.033Z,22.63
2022-11-21T13:17:20.628Z,24.88
2022-11-21T13:19:59.614Z,20.02
2022-11-21T13:22:37.888Z,21.00
2022-11-21T13:25:10.005Z,33.92
2022-11-21T13:27:58.100Z,29.50
2022-11-21T13:30:26.211Z,39.03
2022-11-21T13:32:55.083Z,32.20
2022-11-21T13:35:22.478Z,44.60
2022-11-21T13:37:54.200Z,23.35
2022-11-21T13:40:27.732Z,24.52
2022-11-21T13:43:36.719Z,24.92
2022-11-21T13:46:04.813Z,25.05
2022-11-21T13:48:53.006Z,34.67
2022-11-21T13:51:38.797Z,31.45
2022-11-21T13:54:12.081Z,22.90
2022-11-21T13:57:04.255Z,33.38
2022-11-21T14:00:19.888Z,25.83
2022-11-21T14:03:07.548Z,31.80
2022-11-21T14:05:59.420Z,14.93
2022-11-21T14:08:29.403Z,73.45
2022-11-21T14:10:58.321Z,23.40
2022-11-21T14:13:30.712Z,25.67
2022-11-21T14:16:17.822Z,23.33
2022-11-21T14:18:47.239Z,32.97
2022-11-21T14:21:31.046Z,25.40
2022-11-21T14:24:05.413Z,15.18
2022-11-21T14:26:36.972Z,17.85
2022-11-21T14:29:41.054Z,29.92
2022-11-21T14:32:15.290Z,25.65
2022-11-21T14:34:43.222Z,38.30
2022-11-21T14:37:14.087Z,36.10
2022-11-21T14:39:44.885Z,21.85
2022-11-21T14:42:17.494Z,35.35
2022-11-21T14:44:45.353Z,12.13
2022-11-21T14:47:25.323Z,20.60
2022-11-21T14:50:06.884Z,16.13
2022-11-21T14:52:35.151Z,24.60
2022-11-21T14:57:53.423Z,45.97
2022-11-21T15:00:57.420Z,25.92
2022-11-21T15:03:22.997Z,21.17
2022-11-21T15:06:05.093Z,17.73
2022-11-21T15:11:26.270Z,13.02
2022-11-21T15:14:15.395Z,21.52
2022-11-21T15:16:48.018Z,14.48
2022-11-21T15:19:24.058Z,16.85
2022-11-21T15:21:54.705Z,17.38
2022-11-21T15:24:42.759Z,13.18
2022-11-21T15:27:40.576Z,11.00
2022-11-21T15:30:34.138Z,12.80
2022-11-21T15:33:20.991Z,10.02
2022-11-21T15:35:54.081Z,12.73
2022-11-21T15:38:45.038Z,22.42
2022-11-21T15:41:15.089Z,13.63
2022-11-21T15:43:45.537Z,12.02
2022-11-21T15:46:30.137Z,14.52
2022-11-21T15:49:06.243Z,8.43
2022-11-21T15:54:35.173Z,9.15
2022-11-21T15:57:02.480Z,14.60
2022-11-21T15:59:29.924Z,15.27
2022-11-21T16:01:57.640Z,7.00
2022-11-21T16:04:26.641Z,19.00
2022-11-21T16:06:57.406Z,11.13
2022-11-21T16:09:25.246Z,7.85
2022-11-21T16:11:52.980Z,5.03
2022-11-21T16:14:20.589Z,7.10
2022-11-21T16:16:48.702Z,9.98
2022-11-21T16:19:16.562Z,5.60
2022-11-21T16:21:44.331Z,2.30
2022-11-21T16:24:12.791Z,7.70
2022-11-21T16:26:40.568Z,9.90
2022-11-21T16:29:10.667Z,3.55
2022-11-21T16:34:06.724Z,7.10
2022-11-21T16:36:34.504Z,8.77
2022-11-21T16:39:08.073Z,4.65
2022-11-21T16:41:39.478Z,3.25
2022-11-21T16:44:14.044Z,10.45
2022-11-21T16:46:51.729Z,6.13
2022-11-21T16:49:20.274Z,10.63
2022-11-21T16:51:47.590Z,8.20
2022-11-21T16:54:15.725Z,6.57
2022-11-21T16:56:43.235Z,13.50
2022-11-21T16:59:10.689Z,7.50
2022-11-21T17:01:38.426Z,5.65
2022-11-21T17:04:07.047Z,11.02
2022-11-21T17:06:34.662Z,3.88
2022-11-21T17:09:02.867Z,9.80
2022-11-21T17:11:31.624Z,8.60
2022-11-21T17:14:04.658Z,14.68
2022-11-21T17:16:33.031Z,3.72
2022-11-21T17:19:01.867Z,11.55
2022-11-21T17:21:30.251Z,5.45
2022-11-21T17:23:58.531Z,8.40
2022-11-21T17:26:28.045Z,9.50
2022-11-21T17:28:58.605Z,7.63
2022-11-21T17:31:26.257Z,9.50
2022-11-21T17:33:55.643Z,14.93
2022-11-21T17:36:24.008Z,12.93
2022-11-21T17:38:53.074Z,3.78
2022-11-21T17:41:22.940Z,6.50
2022-11-21T17:43:53.728Z,2.08
2022-11-21T17:46:21.429Z,5.38
2022-11-21T17:48:55.535Z,3.47
2022-11-21T17:51:29.925Z,14.15
2022-11-21T17:53:57.951Z,7.82
2022-11-21T17:56:28.042Z,6.82
2022-11-21T18:01:23.575Z,12.30
2022-11-21T18:04:01.610Z,7.10
2022-11-21T18:06:33.521Z,2.22
2022-11-21T18:09:01.331Z,5.38
2022-11-21T18:11:33.084Z,4.85
2022-11-21T18:14:03.831Z,9.10
2022-11-21T18:16:33.542Z,5.43
2022-11-21T18:19:01.131Z,4.47
2022-11-21T18:21:30.647Z,2.60
2022-11-21T18:23:59.862Z,2.38
2022-11-21T18:26:36.136Z,5.13
2022-11-21T18:31:53.974Z,2.75
2022-11-21T18:34:21.887Z,8.35
2022-11-21T18:36:49.411Z,2.33
2022-11-21T18:39:17.083Z,6.35
2022-11-21T18:41:44.907Z,18.10
2022-11-21T18:44:20.159Z,4.28
2022-11-21T18:46:49.681Z,7.05
2022-11-21T18:49:19.743Z,2.35
2022-11-21T18:51:48.439Z,2.42
2022-11-21T18:54:16.413Z,0.85
2022-11-21T18:56:44.093Z,5.57
2022-11-21T18:59:11.806Z,1.67
2022-11-21T19:01:40.088Z,3.15
2022-11-21T19:04:07.989Z,3.33
2022-11-21T19:06:35.776Z,4.10
2022-11-21T19:09:03.337Z,2.70
2022-11-21T19:11:31.385Z,3.33
2022-11-21T19:14:00.837Z,2.10
2022-11-21T19:16:31.282Z,1.95
2022-11-21T19:19:32.451Z,3.15
2022-11-21T19:21:47.317Z,2.83
2022-11-21T19:24:19.603Z,2.42
2022-11-21T19:26:50.457Z,3.67
2022-11-21T19:29:19.046Z,2.55
2022-11-21T19:31:46.649Z,1.98
2022-11-21T19:34:15.592Z,3.88
2022-11-21T19:36:43.421Z,2.47
2022-11-21T19:39:11.189Z,5.13
2022-11-21T19:41:39.247Z,1.98
2022-11-21T19:44:06.757Z,1.92
2022-11-21T19:46:36.927Z,3.40
2022-11-21T19:51:35.928Z,3.10
2022-11-21T19:54:04.854Z,3.60
2022-11-21T19:56:32.672Z,3.42
2022-11-21T19:59:00.453Z,2.28
2022-11-21T20:01:30.583Z,3.78
2022-11-21T20:06:31.531Z,4.90
2022-11-21T20:09:00.417Z,2.53
2022-11-21T20:11:29.863Z,3.90
2022-11-21T20:13:57.674Z,2.22
2022-11-21T20:16:31.215Z,5.03
2022-11-21T20:19:01.113Z,3.50
2022-11-21T20:21:30.537Z,3.03
2022-11-21T20:23:58.606Z,2.78
2022-11-21T20:26:27.261Z,8.15
2022-11-21T20:28:55.231Z,2.47
2022-11-21T20:31:27.229Z,4.18
2022-11-21T20:34:00.777Z,2.80
2022-11-21T20:36:29.610Z,4.63
2022-11-21T20:39:01.601Z,3.90
2022-11-21T20:41:30.891Z,3.17
2022-11-21T20:46:48.863Z,2.63
2022-11-21T20:49:17.640Z,2.00
2022-11-21T20:54:33.215Z,3.55
2022-11-21T20:57:00.826Z,5.85
2022-11-21T20:59:28.927Z,4.82
2022-11-21T21:01:57.042Z,2.00
2022-11-21T21:04:24.642Z,4.03
2022-11-21T21:06:52.198Z,2.67
2022-11-21T21:09:20.045Z,3.25
2022-11-21T21:11:53.092Z,3.08
2022-11-21T21:14:22.392Z,4.97
2022-11-21T21:16:50.486Z,3.25
2022-11-21T21:19:18.522Z,5.70
2022-11-21T21:21:47.403Z,3.55
2022-11-21T21:24:15.997Z,3.00
2022-11-21T21:26:46.516Z,3.15
2022-11-21T21:29:22.147Z,2.67
2022-11-21T21:31:52.384Z,3.58
2022-11-21T21:34:21.904Z,2.42
2022-11-21T21:36:50.925Z,2.95
2022-11-21T21:39:20.872Z,2.88
2022-11-21T21:41:48.685Z,2.83
2022-11-21T21:44:16.962Z,6.40
2022-11-21T21:46:44.657Z,2.75
2022-11-21T21:49:12.711Z,3.28
2022-11-21T21:51:40.336Z,2.55
2022-11-21T21:54:13.723Z,4.40
2022-11-21T21:56:41.128Z,4.82
2022-11-21T21:59:08.759Z,3.85
2022-11-21T22:01:36.452Z,2.95
2022-11-21T22:04:05.759Z,2.50
2022-11-21T22:06:36.620Z,3.17
2022-11-21T22:09:04.394Z,3.40
2022-11-21T22:11:35.972Z,2.45
2022-11-21T22:14:05.642Z,2.50
2022-11-21T22:16:33.445Z,3.47
2022-11-21T22:19:01.239Z,2.72
2022-11-21T22:21:32.860Z,6.35
2022-11-21T22:24:28.219Z,3.30
2022-11-21T22:26:55.848Z,4.53
2022-11-21T22:29:23.528Z,3.25
2022-11-21T22:31:51.627Z,4.90
2022-11-21T22:34:19.543Z,3.92
2022-11-21T22:36:47.272Z,3.03
2022-11-21T22:39:15.516Z,3.20
2022-11-21T22:41:43.393Z,3.10
2022-11-21T22:44:10.979Z,2.92
2022-11-21T22:46:38.805Z,2.55
2022-11-21T22:49:06.464Z,2.92
2022-11-21T22:51:34.769Z,4.07
2022-11-21T22:54:02.241Z,3.05
2022-11-21T22:56:29.934Z,2.35
2022-11-21T22:58:57.654Z,3.92
2022-11-21T23:01:26.435Z,5.90
2022-11-21T23:03:55.793Z,3.45
2022-11-21T23:06:25.299Z,4.70
2022-11-21T23:08:57.485Z,3.38
2022-11-21T23:11:36.353Z,2.72
2022-11-21T23:14:07.969Z,2.47
2022-11-21T23:16:35.376Z,2.67
2022-11-21T23:19:03.155Z,3.78
2022-11-21T23:21:30.685Z,2.55
2022-11-21T23:23:59.123Z,4.47
2022-11-21T23:26:26.452Z,2.55
2022-11-21T23:28:54.248Z,3.08
2022-11-21T23:31:21.941Z,2.40
2022-11-21T23:33:49.671Z,6.50
2022-11-21T23:36:17.514Z,5.22
2022-11-21T23:38:45.467Z,3.22
2022-11-21T23:41:12.844Z,3.78
2022-11-21T23:43:40.709Z,2.67
2022-11-21T23:46:08.241Z,2.53
2022-11-21T23:48:35.926Z,3.53
2022-11-21T23:51:03.656Z,3.40
2022-11-21T23:53:31.482Z,4.40
2022-11-21T23:55:59.072Z,3.15
2022-11-21T23:58:26.789Z,2.22
